createdAt,value
2023-05-21T00:00:12.273Z,3.13
2023-05-21T00:02:43.018Z,2.53
2023-05-21T00:05:15.078Z,3.00
2023-05-21T00:07:44.194Z,2.60
2023-05-21T00:10:14.752Z,2.45
2023-05-21T00:12:43.395Z,2.45
2023-05-21T00:15:12.564Z,3.15
2023-05-21T00:17:41.945Z,2.90
2023-05-21T00:20:11.035Z,2.25
2023-05-21T00:22:40.429Z,2.33
2023-05-21T00:25:09.809Z,1.75
2023-05-21T00:27:39.753Z,2.40
2023-05-21T00:30:09.308Z,3.30
2023-05-21T00:32:39.219Z,1.48
2023-05-21T00:35:08.990Z,2.30
2023-05-21T00:37:38.245Z,2.55
2023-05-21T00:40:09.269Z,1.65
2023-05-21T00:42:40.732Z,2.00
2023-05-21T00:45:10.705Z,1.35
2023-05-21T00:47:39.513Z,2.20
2023-05-21T00:50:09.387Z,2.00
2023-05-21T00:52:42.342Z,2.53
2023-05-21T00:55:11.900Z,2.38
2023-05-21T00:57:42.686Z,1.90
2023-05-21T01:00:13.009Z,2.20
2023-05-21T01:02:42.299Z,2.75
2023-05-21T01:05:11.795Z,2.67
2023-05-21T01:07:42.706Z,2.65
2023-05-21T01:10:13.661Z,2.40
2023-05-21T01:12:45.700Z,2.05
2023-05-21T01:15:14.957Z,3.03
2023-05-21T01:17:46.254Z,2.45
2023-05-21T01:20:18.320Z,2.70
2023-05-21T01:22:56.126Z,0.95
2023-05-21T01:25:26.461Z,3.22
2023-05-21T01:27:55.127Z,1.90
2023-05-21T01:30:24.870Z,2.05
2023-05-21T01:33:00.101Z,1.70
2023-05-21T01:35:33.721Z,2.25
2023-05-21T01:38:10.246Z,2.78
2023-05-21T01:40:45.226Z,2.60
2023-05-21T01:43:15.064Z,2.25
2023-05-21T01:45:45.292Z,2.80
2023-05-21T01:48:14.896Z,2.17
2023-05-21T01:50:46.117Z,2.60
2023-05-21T01:53:17.410Z,2.28
2023-05-21T01:55:46.151Z,2.08
2023-05-21T01:58:15.866Z,2.67
2023-05-21T02:00:45.581Z,2.78
2023-05-21T02:03:15.164Z,2.08
2023-05-21T02:05:43.893Z,1.52
2023-05-21T02:08:12.977Z,2.42
2023-05-21T02:10:43.035Z,2.08
2023-05-21T02:13:11.843Z,2.63
2023-05-21T02:15:40.822Z,1.92
2023-05-21T02:18:09.750Z,2.58
2023-05-21T02:20:58.356Z,2.95
2023-05-21T02:23:27.231Z,2.70
2023-05-21T02:25:57.566Z,2.63
2023-05-21T02:28:26.219Z,2.83
2023-05-21T02:30:54.901Z,1.90
2023-05-21T02:33:24.153Z,2.72
2023-05-21T02:35:52.889Z,2.10
2023-05-21T02:38:23.331Z,1.90
2023-05-21T02:40:52.285Z,2.17
2023-05-21T02:43:22.688Z,2.47
2023-05-21T02:45:51.751Z,1.42
2023-05-21T02:48:21.026Z,1.73
2023-05-21T02:50:49.742Z,3.45
2023-05-21T02:53:18.399Z,1.83
2023-05-21T02:55:47.033Z,2.55
2023-05-21T02:58:15.784Z,2.97
2023-05-21T03:00:53.571Z,1.70
2023-05-21T03:03:22.864Z,2.50
2023-05-21T03:05:51.522Z,2.78
2023-05-21T03:08:20.457Z,2.25
2023-05-21T03:10:49.098Z,2.70
2023-05-21T03:13:18.742Z,2.45
2023-05-21T03:15:49.004Z,1.90
2023-05-21T03:18:17.645Z,3.33
2023-05-21T03:20:46.200Z,2.95
2023-05-21T03:23:16.855Z,2.55
2023-05-21T03:25:47.087Z,2.53
2023-05-21T03:28:17.776Z,1.67
2023-05-21T03:30:52.505Z,2.65
2023-05-21T03:33:43.994Z,1.88
2023-05-21T03:36:25.781Z,2.05
2023-05-21T03:38:54.419Z,2.30
2023-05-21T03:41:23.325Z,2.28
2023-05-21T03:43:57.745Z,1.85
2023-05-21T03:46:32.315Z,3.22
2023-05-21T03:49:14.751Z,3.00
2023-05-21T03:51:44.215Z,2.03
2023-05-21T03:54:16.947Z,2.97
2023-05-21T03:56:45.724Z,2.90
2023-05-21T03:59:14.451Z,1.58
2023-05-21T04:01:46.311Z,2.17
2023-05-21T04:04:18.077Z,2.47
2023-05-21T04:06:46.756Z,2.33
2023-05-21T04:09:15.340Z,2.38
2023-05-21T04:11:44.500Z,1.50
2023-05-21T04:14:13.232Z,1.60
2023-05-21T04:16:44.266Z,1.45
2023-05-21T04:19:14.901Z,2.03
2023-05-21T04:21:45.196Z,1.88
2023-05-21T04:24:16.411Z,1.73
2023-05-21T04:26:54.294Z,2.10
2023-05-21T04:29:23.047Z,2.33
2023-05-21T04:31:52.445Z,1.73
2023-05-21T04:34:22.705Z,2.58
2023-05-21T04:36:52.089Z,2.03
2023-05-21T04:39:20.672Z,1.80
2023-05-21T04:41:50.879Z,2.47
2023-05-21T04:44:19.721Z,2.63
2023-05-21T04:46:49.126Z,1.75
2023-05-21T04:49:21.047Z,1.40
2023-05-21T04:51:51.087Z,1.15
2023-05-21T04:54:19.704Z,1.83
2023-05-21T04:56:48.420Z,2.40
2023-05-21T04:59:17.563Z,2.00
2023-05-21T05:01:46.273Z,2.97
2023-05-21T05:04:14.990Z,2.03
2023-05-21T05:06:43.614Z,1.60
2023-05-21T05:09:13.896Z,1.63
2023-05-21T05:11:42.518Z,1.50
2023-05-21T05:14:11.283Z,1.48
2023-05-21T05:16:39.988Z,2.03
2023-05-21T05:19:09.108Z,1.88
2023-05-21T05:21:37.945Z,1.92
2023-05-21T05:24:07.482Z,1.50
2023-05-21T05:26:38.812Z,1.48
2023-05-21T05:29:07.459Z,1.35
2023-05-21T05:31:36.183Z,2.28
2023-05-21T05:34:05.034Z,2.08
2023-05-21T05:36:33.824Z,1.52
2023-05-21T05:39:04.684Z,1.80
2023-05-21T05:41:33.363Z,1.40
2023-05-21T05:44:03.587Z,2.00
2023-05-21T05:46:35.756Z,1.33
2023-05-21T05:49:05.262Z,1.13
2023-05-21T05:51:33.937Z,1.35
2023-05-21T05:54:03.165Z,1.85
2023-05-21T05:56:32.510Z,2.03
2023-05-21T05:59:01.328Z,1.10
2023-05-21T06:01:32.792Z,1.38
2023-05-21T06:04:01.612Z,1.23
2023-05-21T06:06:32.014Z,1.85
2023-05-21T06:09:01.046Z,1.27
2023-05-21T06:11:30.127Z,2.30
2023-05-21T06:14:01.120Z,1.35
2023-05-21T06:16:31.500Z,1.27
2023-05-21T06:19:01.922Z,1.38
2023-05-21T06:21:30.994Z,2.13
2023-05-21T06:23:59.854Z,1.38
2023-05-21T06:26:30.121Z,1.58
2023-05-21T06:28:59.077Z,1.60
2023-05-21T06:31:28.060Z,1.40
2023-05-21T06:33:56.963Z,0.80
2023-05-21T06:36:30.160Z,0.93
2023-05-21T06:38:59.366Z,1.60
2023-05-21T06:41:28.228Z,1.38
2023-05-21T06:43:59.969Z,1.92
2023-05-21T06:46:51.776Z,1.40
2023-05-21T06:49:21.506Z,1.20
2023-05-21T06:51:51.547Z,1.50
2023-05-21T06:54:20.255Z,2.17
2023-05-21T06:56:48.981Z,1.52
2023-05-21T06:59:18.265Z,1.63
2023-05-21T07:01:47.152Z,1.33
2023-05-21T07:04:16.065Z,1.15
2023-05-21T07:06:46.267Z,2.22
2023-05-21T07:09:16.534Z,1.30
2023-05-21T07:11:45.356Z,1.63
2023-05-21T07:14:17.371Z,1.10
2023-05-21T07:16:46.333Z,1.10
2023-05-21T07:19:16.235Z,1.17
2023-05-21T07:21:45.742Z,1.20
2023-05-21T07:24:15.926Z,1.63
2023-05-21T07:26:44.631Z,1.02
2023-05-21T07:29:14.036Z,1.27
2023-05-21T07:31:42.680Z,1.38
2023-05-21T07:34:12.402Z,1.88
2023-05-21T07:36:43.114Z,1.40
2023-05-21T07:39:12.151Z,1.20
2023-05-21T07:41:42.364Z,1.42
2023-05-21T07:44:11.752Z,1.60
2023-05-21T07:46:43.828Z,0.80
2023-05-21T07:49:16.975Z,1.58
2023-05-21T07:51:47.376Z,1.77
2023-05-21T07:54:17.275Z,1.15
2023-05-21T07:56:48.329Z,1.17
2023-05-21T07:59:33.752Z,1.83
2023-05-21T08:02:02.834Z,0.98
2023-05-21T08:04:31.654Z,1.52
2023-05-21T08:07:00.394Z,1.33
2023-05-21T08:09:29.576Z,0.75
2023-05-21T08:12:00.637Z,1.17
2023-05-21T08:14:29.309Z,1.25
2023-05-21T08:16:58.572Z,1.67
2023-05-21T08:19:27.194Z,0.73
2023-05-21T08:21:56.024Z,1.48
2023-05-21T08:24:26.481Z,0.65
2023-05-21T08:26:55.204Z,0.80
2023-05-21T08:29:25.345Z,1.52
2023-05-21T08:31:55.879Z,1.25
2023-05-21T08:34:24.758Z,1.10
2023-05-21T08:37:04.600Z,1.65
2023-05-21T08:40:13.428Z,0.90
2023-05-21T08:42:50.899Z,0.75
2023-05-21T08:45:38.383Z,1.17
2023-05-21T08:48:09.863Z,1.33
2023-05-21T08:50:38.996Z,0.63
2023-05-21T08:53:26.649Z,2.08
2023-05-21T08:55:58.764Z,1.20
2023-05-21T08:58:43.852Z,1.48
2023-05-21T09:01:14.176Z,1.10
2023-05-21T09:03:48.290Z,0.77
2023-05-21T09:06:17.933Z,1.05
2023-05-21T09:09:01.512Z,0.88
2023-05-21T09:11:38.177Z,1.05
2023-05-21T09:14:07.829Z,1.30
2023-05-21T09:17:01.523Z,1.25
2023-05-21T09:19:32.510Z,0.70
2023-05-21T09:22:04.333Z,1.45
2023-05-21T09:24:36.330Z,0.80
2023-05-21T09:27:08.588Z,1.05
2023-05-21T09:29:37.810Z,0.60
2023-05-21T09:32:12.565Z,0.80
2023-05-21T09:34:42.959Z,1.08
2023-05-21T09:37:23.816Z,0.90
2023-05-21T09:39:56.052Z,0.98
2023-05-21T09:42:24.822Z,1.98
2023-05-21T09:44:54.587Z,1.10
2023-05-21T10:07:02.380Z,0.70
2023-05-21T10:09:31.787Z,1.15
2023-05-21T10:12:00.982Z,0.93
2023-05-21T10:14:32.291Z,0.75
2023-05-21T10:17:01.880Z,0.22
2023-05-21T10:19:34.107Z,0.65
2023-05-21T10:34:57.774Z,1.17
2023-05-21T10:37:28.622Z,0.70
2023-05-21T10:39:57.773Z,0.80
2023-05-21T10:43:03.093Z,0.60
2023-05-21T10:45:46.405Z,1.85
2023-05-21T10:48:30.500Z,0.55
2023-05-21T10:51:25.103Z,1.50
2023-05-21T10:54:13.257Z,0.50
2023-05-21T10:56:47.241Z,0.43
2023-05-21T10:59:32.198Z,0.55
2023-05-21T11:02:01.922Z,0.55
2023-05-21T11:04:30.918Z,0.70
2023-05-21T11:07:01.474Z,1.58
2023-05-21T11:09:31.787Z,0.82
2023-05-21T11:12:03.208Z,0.47
2023-05-21T11:14:36.477Z,0.90
2023-05-21T11:17:11.208Z,0.47
2023-05-21T11:19:41.813Z,1.08
2023-05-21T11:22:22.614Z,0.40
2023-05-21T11:41:02.396Z,1.02
2023-05-21T11:43:31.104Z,0.57
2023-05-21T11:46:00.518Z,1.35
2023-05-21T11:48:30.600Z,0.45
2023-05-21T11:51:01.755Z,0.32
2023-05-21T11:53:31.477Z,0.60
2023-05-21T11:56:03.752Z,1.40
2023-05-21T11:58:33.014Z,1.20
2023-05-21T12:01:01.674Z,0.55
2023-05-21T12:03:30.730Z,0.70
2023-05-21T12:06:06.657Z,0.52
2023-05-21T12:08:35.971Z,1.48
2023-05-21T12:11:06.193Z,0.50
2023-05-21T12:13:35.014Z,1.33
2023-05-21T12:16:06.658Z,1.00
2023-05-21T12:18:37.507Z,1.13
2023-05-21T12:21:06.995Z,0.57
2023-05-21T12:23:35.618Z,0.98
2023-05-21T12:26:06.517Z,0.55
2023-05-21T12:28:35.153Z,1.15
2023-05-21T12:31:03.894Z,1.10
2023-05-21T12:33:35.713Z,0.85
2023-05-21T12:36:04.864Z,0.63
2023-05-21T12:38:39.776Z,0.60
2023-05-21T12:41:09.823Z,0.57
2023-05-21T12:43:39.215Z,0.63
2023-05-21T12:46:07.899Z,0.95
2023-05-21T12:48:36.557Z,1.10
2023-05-21T12:51:05.283Z,1.10
2023-05-21T12:56:48.267Z,0.63
2023-05-21T12:59:17.181Z,2.78
2023-05-21T13:01:49.201Z,0.60
2023-05-21T13:04:21.521Z,0.47
2023-05-21T13:06:50.316Z,0.45
2023-05-21T13:09:19.101Z,0.98
2023-05-21T13:11:49.116Z,0.70
2023-05-21T13:14:18.029Z,0.80
2023-05-21T13:16:48.728Z,1.40
2023-05-21T13:19:17.454Z,1.25
2023-05-21T13:21:46.232Z,0.75
2023-05-21T13:24:14.908Z,0.50
2023-05-21T13:26:43.578Z,1.20
2023-05-21T13:29:14.953Z,0.88
2023-05-21T13:31:43.881Z,1.13
2023-05-21T13:34:13.236Z,0.45
2023-05-21T13:36:42.335Z,0.70
2023-05-21T13:39:11.215Z,0.70
2023-05-21T13:41:41.002Z,1.23
2023-05-21T13:44:09.704Z,0.70
2023-05-21T13:46:40.541Z,0.82
2023-05-21T13:49:09.419Z,1.08
2023-05-21T13:51:39.416Z,0.60
2023-05-21T14:00:45.119Z,1.08
2023-05-21T14:03:15.177Z,1.00
2023-05-21T14:05:44.027Z,0.60
2023-05-21T14:08:12.778Z,0.63
2023-05-21T14:10:41.795Z,0.70
2023-05-21T14:13:18.896Z,1.10
2023-05-21T14:15:48.627Z,0.20
2023-05-21T14:18:18.801Z,0.70
2023-05-21T14:20:47.438Z,0.60
2023-05-21T14:23:16.580Z,1.02
2023-05-21T14:25:45.305Z,0.82
2023-05-21T14:28:14.175Z,1.00
2023-05-21T14:30:42.983Z,0.68
2023-05-21T14:33:13.558Z,1.30
2023-05-21T14:35:45.599Z,1.00
2023-05-21T14:38:14.277Z,1.00
2023-05-21T14:40:42.995Z,0.63
2023-05-21T14:43:11.580Z,0.70
2023-05-21T14:45:40.431Z,1.33
2023-05-21T14:48:09.485Z,0.68
2023-05-21T14:50:38.511Z,0.88
2023-05-21T15:09:13.328Z,1.33
2023-05-21T15:11:44.029Z,1.05
2023-05-21T15:14:12.765Z,1.20
2023-05-21T15:16:41.563Z,0.95
2023-05-21T15:19:11.958Z,0.88
2023-05-21T15:21:41.538Z,1.30
2023-05-21T15:24:15.591Z,0.88
2023-05-21T15:26:44.356Z,0.52
2023-05-21T15:29:13.002Z,2.00
2023-05-21T15:31:41.611Z,1.00
2023-05-21T15:34:10.350Z,0.60
2023-05-21T15:36:39.193Z,1.30
2023-05-21T15:39:08.042Z,0.65
2023-05-21T15:41:38.696Z,0.82
2023-05-21T15:44:07.596Z,0.90
2023-05-21T15:46:36.380Z,1.00
2023-05-21T15:49:05.222Z,0.60
2023-05-21T15:51:34.014Z,0.95
2023-05-21T15:54:02.815Z,1.02
2023-05-21T15:56:31.604Z,1.30
2023-05-21T15:59:01.644Z,1.15
2023-05-21T16:01:30.885Z,1.10
2023-05-21T16:03:59.755Z,0.60
2023-05-21T16:06:28.470Z,1.10
2023-05-21T16:08:57.261Z,0.80
2023-05-21T16:11:26.496Z,1.35
2023-05-21T16:13:55.566Z,1.00
2023-05-21T16:16:25.867Z,0.50
2023-05-21T16:18:55.105Z,0.65
2023-05-21T16:21:43.314Z,0.88
2023-05-21T16:24:12.250Z,1.20
2023-05-21T16:26:40.963Z,1.10
2023-05-21T16:33:43.567Z,1.35
2023-05-21T16:36:12.375Z,0.60
2023-05-21T16:38:40.981Z,0.65
2023-05-21T16:41:09.640Z,0.60
2023-05-21T16:43:38.360Z,0.93
2023-05-21T16:46:07.160Z,0.75
2023-05-21T16:48:38.058Z,1.15
2023-05-21T17:16:52.540Z,0.77
2023-05-21T17:19:21.400Z,1.15
2023-05-21T17:50:55.615Z,0.90
2023-05-21T17:53:24.606Z,0.65
2023-05-21T17:55:53.391Z,0.85
2023-05-21T17:58:22.280Z,0.80
2023-05-21T18:00:51.255Z,1.58
2023-05-21T18:03:19.930Z,1.15
2023-05-21T18:05:58.378Z,0.75
2023-05-21T18:08:27.073Z,1.25
2023-05-21T18:10:55.818Z,0.90
2023-05-21T18:13:24.464Z,0.47
2023-05-21T18:15:53.066Z,1.25
2023-05-21T18:18:21.912Z,0.82
2023-05-21T18:20:51.012Z,1.27
2023-05-21T18:23:21.007Z,1.05
2023-05-21T18:25:49.910Z,0.85
2023-05-21T18:28:18.757Z,0.52
2023-05-21T18:30:47.420Z,0.60
2023-05-21T18:33:16.948Z,0.70
2023-05-21T18:35:57.372Z,1.08
2023-05-21T18:38:27.633Z,1.15
2023-05-21T18:40:56.390Z,2.03
2023-05-21T18:43:25.466Z,0.98
2023-05-21T18:45:54.294Z,2.22
2023-05-21T18:48:23.119Z,1.27
2023-05-21T18:50:52.881Z,1.48
2023-05-21T18:53:21.499Z,1.27
2023-05-21T18:55:51.636Z,1.05
2023-05-21T18:58:20.550Z,1.33
2023-05-21T19:00:49.266Z,1.88
2023-05-21T19:03:18.040Z,1.83
2023-05-21T19:05:46.865Z,1.23
2023-05-21T19:08:15.801Z,1.00
2023-05-21T19:10:45.711Z,1.25
2023-05-21T19:13:16.075Z,1.40
2023-05-21T19:15:47.144Z,1.63
2023-05-21T19:18:17.257Z,1.73
2023-05-21T19:20:46.112Z,0.90
2023-05-21T19:23:15.317Z,1.35
2023-05-21T19:25:43.954Z,1.50
2023-05-21T19:28:12.684Z,1.00
2023-05-21T19:30:42.723Z,1.88
2023-05-21T19:33:11.955Z,1.00
2023-05-21T19:35:42.029Z,1.30
2023-05-21T19:38:11.938Z,1.52
2023-05-21T19:40:40.646Z,1.33
2023-05-21T19:43:09.265Z,0.98
2023-05-21T19:45:37.934Z,1.50
2023-05-21T19:48:08.773Z,1.30
2023-05-21T19:50:37.699Z,1.92
2023-05-21T19:53:06.502Z,1.50
2023-05-21T19:55:37.521Z,1.00
2023-05-21T19:58:06.190Z,1.88
2023-05-21T20:00:34.833Z,1.95
2023-05-21T20:03:03.527Z,1.65
2023-05-21T20:05:33.536Z,1.63
2023-05-21T20:08:02.254Z,1.13
2023-05-21T20:10:30.927Z,1.38
2023-05-21T20:12:59.488Z,1.00
2023-05-21T20:15:28.154Z,1.85
2023-05-21T20:17:59.289Z,1.77
2023-05-21T20:20:28.095Z,1.30
2023-05-21T20:22:58.087Z,0.98
2023-05-21T20:25:26.688Z,1.25
2023-05-21T20:27:56.555Z,1.42
2023-05-21T20:30:25.160Z,1.02
2023-05-21T20:32:53.803Z,1.92
2023-05-21T20:35:22.521Z,1.40
2023-05-21T20:37:52.709Z,2.92
2023-05-21T20:40:22.877Z,1.58
2023-05-21T20:42:53.627Z,1.80
2023-05-21T20:45:22.473Z,1.98
2023-05-21T20:47:51.250Z,1.20
2023-05-21T20:50:25.975Z,1.52
2023-05-21T20:52:54.773Z,1.35
2023-05-21T20:55:24.837Z,1.65
2023-05-21T20:57:53.577Z,1.52
2023-05-21T21:00:22.733Z,1.38
2023-05-21T21:02:51.421Z,1.92
2023-05-21T21:05:20.218Z,1.33
2023-05-21T21:07:48.888Z,1.27
2023-05-21T21:10:23.479Z,1.55
2023-05-21T21:12:53.564Z,1.63
2023-05-21T21:15:22.307Z,1.15
2023-05-21T21:17:51.069Z,1.45
2023-05-21T21:20:19.802Z,1.08
2023-05-21T21:22:48.473Z,1.20
2023-05-21T21:25:17.646Z,1.27
2023-05-21T21:27:46.224Z,2.08
2023-05-21T21:30:16.471Z,1.33
2023-05-21T21:32:45.340Z,1.70
2023-05-21T21:35:14.012Z,0.90
2023-05-21T21:37:42.617Z,1.67
2023-05-21T21:40:11.827Z,2.53
2023-05-21T21:42:40.507Z,1.00
2023-05-21T21:45:10.460Z,1.52
2023-05-21T21:47:40.708Z,0.88
2023-05-21T21:50:09.978Z,1.08
2023-05-21T21:52:40.228Z,0.95
2023-05-21T21:55:10.574Z,1.67
2023-05-21T21:57:40.261Z,2.65
2023-05-21T22:00:15.952Z,1.40
2023-05-21T22:02:47.639Z,1.88
2023-05-21T22:05:16.508Z,1.35
2023-05-21T22:07:46.625Z,1.20
2023-05-21T22:10:16.301Z,1.17
2023-05-21T22:12:46.254Z,1.65
2023-05-21T22:15:20.180Z,0.90
2023-05-21T22:17:51.790Z,1.58
2023-05-21T22:20:22.081Z,1.55
2023-05-21T22:22:52.002Z,1.40
2023-05-21T22:25:21.232Z,1.77
2023-05-21T22:27:49.833Z,0.98
2023-05-21T22:43:23.599Z,1.90
2023-05-21T22:45:52.220Z,1.38
2023-05-21T22:48:22.087Z,1.33
2023-05-21T22:50:53.671Z,2.13
2023-05-21T22:53:23.442Z,1.67
2023-05-21T22:55:52.326Z,1.35
2023-05-21T23:31:02.847Z,1.55
2023-05-21T23:33:31.570Z,0.73
2023-05-21T23:36:00.150Z,1.48
2023-05-21T23:38:28.719Z,1.63
2023-05-21T23:40:57.426Z,1.83
2023-05-21T23:43:25.984Z,1.80
2023-05-21T23:45:54.654Z,1.88
2023-05-21T23:48:24.717Z,1.63
2023-05-21T23:50:53.507Z,0.73
2023-05-21T23:53:22.335Z,1.35
2023-05-21T23:55:50.916Z,1.90
2023-05-21T23:58:19.617Z,1.15
